sensor_id;sensor_type;location;lat;lon;timestamp;pressure;altitude;pressure_sealevel;temperature;humidity
12775;BME280;6451;42.630;23.382;2022-07-21T00:00:25;94671.59;;;18.49;100.00
12775;BME280;6451;42.630;23.382;2022-07-21T00:02:54;94663.72;;;18.47;100.00
12775;BME280;6451;42.630;23.382;2022-07-21T00:05:21;94664.88;;;18.46;100.00
12775;BME280;6451;42.630;23.382;2022-07-21T00:07:49;94668.06;;;18.52;100.00
12775;BME280;6451;42.630;23.382;2022-07-21T00:10:16;94672.75;;;18.44;100.00
12775;BME280;6451;42.630;23.382;2022-07-21T00:12:44;94670.78;;;18.41;100.00
12775;BME280;6451;42.630;23.382;2022-07-21T00:15:12;94669.19;;;18.37;100.00
12775;BME280;6451;42.630;23.382;2022-07-21T00:17:41;94652.66;;;18.22;100.00
12775;BME280;6451;42.630;23.382;2022-07-21T00:20:09;94669.94;;;18.30;100.00
12775;BME280;6451;42.630;23.382;2022-07-21T00:22:37;94667.94;;;18.23;100.00
12775;BME280;6451;42.630;23.382;2022-07-21T00:25:04;94673.84;;;18.22;100.00
12775;BME280;6451;42.630;23.382;2022-07-21T00:27:31;94685.22;;;18.20;100.00
12775;BME280;6451;42.630;23.382;2022-07-21T00:29:58;94685.22;;;18.20;100.00
12775;BME280;6451;42.630;23.382;2022-07-21T00:32:26;94682.44;;;18.13;100.00
12775;BME280;6451;42.630;23.382;2022-07-21T00:34:55;94669.06;;;18.08;100.00
12775;BME280;6451;42.630;23.382;2022-07-21T00:37:21;94689.09;;;18.16;100.00
12775;BME280;6451;42.630;23.382;2022-07-21T00:39:49;94682.06;;;18.18;100.00
12775;BME280;6451;42.630;23.382;2022-07-21T00:42:20;94686.41;;;18.23;100.00
12775;BME280;6451;42.630;23.382;2022-07-21T00:44:48;94684.81;;;18.22;100.00
12775;BME280;6451;42.630;23.382;2022-07-21T00:47:15;94686.81;;;18.25;100.00
12775;BME280;6451;42.630;23.382;2022-07-21T00:49:44;94687.44;;;17.90;100.00
12775;BME280;6451;42.630;23.382;2022-07-21T00:52:13;94685.38;;;17.72;100.00
12775;BME280;6451;42.630;23.382;2022-07-21T00:54:40;94683.41;;;17.73;100.00
12775;BME280;6451;42.630;23.382;2022-07-21T00:57:08;94685.00;;;17.77;100.00
12775;BME280;6451;42.630;23.382;2022-07-21T00:59:35;94690.00;;;17.68;100.00
12775;BME280;6451;42.630;23.382;2022-07-21T01:02:02;94697.00;;;17.59;100.00
12775;BME280;6451;42.630;23.382;2022-07-21T01:04:29;94689.56;;;17.59;100.00
12775;BME280;6451;42.630;23.382;2022-07-21T01:06:57;94659.19;;;17.31;100.00
12775;BME280;6451;42.630;23.382;2022-07-21T01:09:25;94679.69;;;17.47;100.00
12775;BME280;6451;42.630;23.382;2022-07-21T01:11:53;94563.22;;;16.76;100.00
12775;BME280;6451;42.630;23.382;2022-07-21T01:14:20;94678.94;;;17.50;100.00
12775;BME280;6451;42.630;23.382;2022-07-21T01:16:47;94663.59;;;17.46;100.00
12775;BME280;6451;42.630;23.382;2022-07-21T01:19:14;94679.38;;;17.56;100.00
12775;BME280;6451;42.630;23.382;2022-07-21T01:21:45;94575.13;;;16.98;100.00
12775;BME280;6451;42.630;23.382;2022-07-21T01:24:13;94657.69;;;17.40;100.00
12775;BME280;6451;42.630;23.382;2022-07-21T01:26:41;94660.03;;;17.38;100.00
12775;BME280;6451;42.630;23.382;2022-07-21T01:29:08;94659.25;;;17.38;100.00
12775;BME280;6451;42.630;23.382;2022-07-21T01:31:36;94667.88;;;17.40;100.00
12775;BME280;6451;42.630;23.382;2022-07-21T01:34:03;94650.09;;;17.19;100.00
12775;BME280;6451;42.630;23.382;2022-07-21T01:36:30;94659.50;;;17.18;100.00
12775;BME280;6451;42.630;23.382;2022-07-21T01:38:59;94651.63;;;17.17;100.00
12775;BME280;6451;42.630;23.382;2022-07-21T01:41:43;94650.44;;;17.14;100.00
12775;BME280;6451;42.630;23.382;2022-07-21T01:44:12;94596.53;;;16.81;100.00
12775;BME280;6451;42.630;23.382;2022-07-21T01:46:41;94647.66;;;17.07;100.00
12775;BME280;6451;42.630;23.382;2022-07-21T01:49:10;94627.94;;;16.91;100.00
12775;BME280;6451;42.630;23.382;2022-07-21T01:51:44;94629.50;;;16.88;100.00
12775;BME280;6451;42.630;23.382;2022-07-21T01:54:12;94641.00;;;17.08;100.00
12775;BME280;6451;42.630;23.382;2022-07-21T01:56:40;94628.84;;;17.09;100.00
12775;BME280;6451;42.630;23.382;2022-07-21T01:59:08;94618.53;;;16.92;100.00
12775;BME280;6451;42.630;23.382;2022-07-21T02:01:35;94655.13;;;17.10;100.00
12775;BME280;6451;42.630;23.382;2022-07-21T02:04:04;94660.06;;;16.94;100.00
12775;BME280;6451;42.630;23.382;2022-07-21T02:06:32;94639.00;;;16.61;100.00
12775;BME280;6451;42.630;23.382;2022-07-21T02:09:00;94642.94;;;16.63;100.00
12775;BME280;6451;42.630;23.382;2022-07-21T02:11:28;94643.75;;;16.67;100.00
12775;BME280;6451;42.630;23.382;2022-07-21T02:13:55;94639.84;;;16.65;100.00
12775;BME280;6451;42.630;23.382;2022-07-21T02:16:22;94660.69;;;16.77;100.00
12775;BME280;6451;42.630;23.382;2022-07-21T02:18:49;94652.47;;;16.73;100.00
12775;BME280;6451;42.630;23.382;2022-07-21T02:21:15;94649.34;;;16.75;100.00
12775;BME280;6451;42.630;23.382;2022-07-21T02:23:42;94650.91;;;16.72;100.00
12775;BME280;6451;42.630;23.382;2022-07-21T02:26:09;94649.22;;;16.64;100.00
12775;BME280;6451;42.630;23.382;2022-07-21T02:28:38;94651.97;;;16.64;100.00
12775;BME280;6451;42.630;23.382;2022-07-21T02:31:06;94631.09;;;16.52;100.00
12775;BME280;6451;42.630;23.382;2022-07-21T02:33:33;94631.41;;;16.44;100.00
12775;BME280;6451;42.630;23.382;2022-07-21T02:36:00;94637.34;;;16.49;100.00
12775;BME280;6451;42.630;23.382;2022-07-21T02:38:27;94636.09;;;16.43;100.00
12775;BME280;6451;42.630;23.382;2022-07-21T02:40:54;94647.53;;;16.52;100.00
12775;BME280;6451;42.630;23.382;2022-07-21T02:43:21;94646.28;;;16.46;100.00
12775;BME280;6451;42.630;23.382;2022-07-21T02:45:50;94648.28;;;16.49;100.00
12775;BME280;6451;42.630;23.382;2022-07-21T02:48:17;94654.63;;;16.57;100.00
12775;BME280;6451;42.630;23.382;2022-07-21T02:50:44;94640.47;;;16.51;100.00
12775;BME280;6451;42.630;23.382;2022-07-21T02:53:14;94640.88;;;16.53;100.00
12775;BME280;6451;42.630;23.382;2022-07-21T02:55:43;94654.25;;;16.58;100.00
12775;BME280;6451;42.630;23.382;2022-07-21T02:58:11;94642.75;;;16.79;100.00
12775;BME280;6451;42.630;23.382;2022-07-21T03:00:41;94646.09;;;16.65;100.00
12775;BME280;6451;42.630;23.382;2022-07-21T03:03:09;94641.34;;;16.62;100.00
12775;BME280;6451;42.630;23.382;2022-07-21T03:05:38;94652.78;;;16.68;100.00
12775;BME280;6451;42.630;23.382;2022-07-21T03:08:06;94626.38;;;16.49;100.00
12775;BME280;6451;42.630;23.382;2022-07-21T03:10:33;94649.72;;;16.73;100.00
12775;BME280;6451;42.630;23.382;2022-07-21T03:13:00;94654.72;;;16.67;100.00
12775;BME280;6451;42.630;23.382;2022-07-21T03:15:27;94628.44;;;16.63;100.00
12775;BME280;6451;42.630;23.382;2022-07-21T03:17:54;94644.94;;;16.66;100.00
12775;BME280;6451;42.630;23.382;2022-07-21T03:20:23;94662.22;;;16.71;100.00
12775;BME280;6451;42.630;23.382;2022-07-21T03:22:50;94657.84;;;16.66;100.00
12775;BME280;6451;42.630;23.382;2022-07-21T03:25:19;94649.81;;;16.47;100.00
12775;BME280;6451;42.630;23.382;2022-07-21T03:27:46;94639.16;;;16.38;100.00
12775;BME280;6451;42.630;23.382;2022-07-21T03:30:14;94670.75;;;16.65;100.00
12775;BME280;6451;42.630;23.382;2022-07-21T03:32:41;94649.94;;;16.57;100.00
12775;BME280;6451;42.630;23.382;2022-07-21T03:35:10;94654.44;;;16.76;100.00
12775;BME280;6451;42.630;23.382;2022-07-21T03:37:42;94650.03;;;16.68;100.00
12775;BME280;6451;42.630;23.382;2022-07-21T03:40:10;94646.34;;;16.87;100.00
12775;BME280;6451;42.630;23.382;2022-07-21T03:42:38;94664.41;;;16.95;100.00
12775;BME280;6451;42.630;23.382;2022-07-21T03:45:06;94666.38;;;16.98;100.00
12775;BME280;6451;42.630;23.382;2022-07-21T03:47:33;94667.69;;;17.15;100.00
12775;BME280;6451;42.630;23.382;2022-07-21T03:50:00;94655.44;;;17.02;100.00
12775;BME280;6451;42.630;23.382;2022-07-21T03:52:27;94670.09;;;17.20;100.00
12775;BME280;6451;42.630;23.382;2022-07-21T03:54:55;94654.38;;;17.17;100.00
12775;BME280;6451;42.630;23.382;2022-07-21T03:57:35;94666.69;;;17.37;100.00
12775;BME280;6451;42.630;23.382;2022-07-21T04:00:05;94671.53;;;17.62;100.00
12775;BME280;6451;42.630;23.382;2022-07-21T04:02:32;94667.97;;;17.54;100.00
12775;BME280;6451;42.630;23.382;2022-07-21T04:04:59;94661.31;;;17.55;100.00
12775;BME280;6451;42.630;23.382;2022-07-21T04:07:26;94661.00;;;17.64;100.00
12775;BME280;6451;42.630;23.382;2022-07-21T04:09:55;94656.97;;;17.50;100.00
12775;BME280;6451;42.630;23.382;2022-07-21T04:12:25;94668.91;;;17.72;100.00
12775;BME280;6451;42.630;23.382;2022-07-21T04:14:52;94669.00;;;17.87;100.00
12775;BME280;6451;42.630;23.382;2022-07-21T04:17:19;94671.72;;;17.87;100.00
12775;BME280;6451;42.630;23.382;2022-07-21T04:19:46;94664.63;;;17.82;100.00
12775;BME280;6451;42.630;23.382;2022-07-21T04:22:13;94663.22;;;18.13;100.00
12775;BME280;6451;42.630;23.382;2022-07-21T04:24:39;94660.81;;;18.04;100.00
12775;BME280;6451;42.630;23.382;2022-07-21T04:27:09;94673.88;;;18.25;100.00
12775;BME280;6451;42.630;23.382;2022-07-21T04:29:37;94666.72;;;18.06;100.00
12775;BME280;6451;42.630;23.382;2022-07-21T04:32:04;94678.53;;;18.18;100.00
12775;BME280;6451;42.630;23.382;2022-07-21T04:34:31;94669.94;;;18.26;100.00
12775;BME280;6451;42.630;23.382;2022-07-21T04:36:58;94650.28;;;18.17;100.00
12775;BME280;6451;42.630;23.382;2022-07-21T04:39:25;94672.34;;;18.42;100.00
12775;BME280;6451;42.630;23.382;2022-07-21T04:41:54;94664.13;;;18.49;100.00
12775;BME280;6451;42.630;23.382;2022-07-21T04:44:22;94677.44;;;18.47;100.00
12775;BME280;6451;42.630;23.382;2022-07-21T04:46:49;94673.91;;;18.47;100.00
12775;BME280;6451;42.630;23.382;2022-07-21T04:49:16;94681.41;;;18.60;100.00
12775;BME280;6451;42.630;23.382;2022-07-21T04:51:43;94684.59;;;18.66;100.00
12775;BME280;6451;42.630;23.382;2022-07-21T04:54:10;94681.06;;;18.69;100.00
12775;BME280;6451;42.630;23.382;2022-07-21T04:56:40;94676.41;;;18.80;100.00
12775;BME280;6451;42.630;23.382;2022-07-21T04:59:07;94693.69;;;18.81;100.00
12775;BME280;6451;42.630;23.382;2022-07-21T05:01:36;94670.84;;;18.70;100.00
12775;BME280;6451;42.630;23.382;2022-07-21T05:04:04;94675.22;;;18.92;100.00
12775;BME280;6451;42.630;23.382;2022-07-21T05:06:33;94675.25;;;19.03;100.00
12775;BME280;6451;42.630;23.382;2022-07-21T05:09:00;94692.13;;;19.23;100.00
12775;BME280;6451;42.630;23.382;2022-07-21T05:11:27;94686.63;;;19.30;100.00
12775;BME280;6451;42.630;23.382;2022-07-21T05:13:53;94691.34;;;19.29;100.00
12775;BME280;6451;42.630;23.382;2022-07-21T05:16:21;94680.34;;;19.36;100.00
12775;BME280;6451;42.630;23.382;2022-07-21T05:18:49;94680.34;;;19.51;100.00
12775;BME280;6451;42.630;23.382;2022-07-21T05:21:16;94675.66;;;19.58;100.00
12775;BME280;6451;42.630;23.382;2022-07-21T05:23:43;94674.81;;;19.79;100.00
12775;BME280;6451;42.630;23.382;2022-07-21T05:26:11;94682.69;;;19.77;100.00
12775;BME280;6451;42.630;23.382;2022-07-21T05:28:39;94676.00;;;19.67;100.00
12775;BME280;6451;42.630;23.382;2022-07-21T05:31:06;94674.41;;;19.84;100.00
12775;BME280;6451;42.630;23.382;2022-07-21T05:33:34;94683.84;;;19.83;100.00
12775;BME280;6451;42.630;23.382;2022-07-21T05:36:02;94685.00;;;19.96;100.00
12775;BME280;6451;42.630;23.382;2022-07-21T05:38:30;94679.91;;;19.91;100.00
12775;BME280;6451;42.630;23.382;2022-07-21T05:40:56;94690.91;;;19.98;100.00
12775;BME280;6451;42.630;23.382;2022-07-21T05:43:25;94680.63;;;20.17;100.00
12775;BME280;6451;42.630;23.382;2022-07-21T05:45:53;94688.19;;;19.84;100.00
12775;BME280;6451;42.630;23.382;2022-07-21T05:48:20;94694.81;;;20.12;100.00
12775;BME280;6451;42.630;23.382;2022-07-21T05:50:47;94693.50;;;20.48;100.00
12775;BME280;6451;42.630;23.382;2022-07-21T05:53:15;94695.06;;;20.53;100.00
12775;BME280;6451;42.630;23.382;2022-07-21T05:55:42;94696.97;;;20.67;100.00
12775;BME280;6451;42.630;23.382;2022-07-21T05:58:08;94687.34;;;20.93;100.00
12775;BME280;6451;42.630;23.382;2022-07-21T06:00:36;94688.22;;;21.38;100.00
12775;BME280;6451;42.630;23.382;2022-07-21T06:03:04;94687.44;;;21.41;100.00
12775;BME280;6451;42.630;23.382;2022-07-21T06:05:32;94689.84;;;21.35;100.00
12775;BME280;6451;42.630;23.382;2022-07-21T06:07:59;94682.69;;;21.42;100.00
12775;BME280;6451;42.630;23.382;2022-07-21T06:10:29;94678.91;;;21.66;100.00
12775;BME280;6451;42.630;23.382;2022-07-21T06:12:56;94652.63;;;21.51;100.00
12775;BME280;6451;42.630;23.382;2022-07-21T06:15:22;94677.63;;;21.78;100.00
12775;BME280;6451;42.630;23.382;2022-07-21T06:17:49;94678.38;;;21.82;100.00
12775;BME280;6451;42.630;23.382;2022-07-21T06:20:16;94668.81;;;21.90;100.00
12775;BME280;6451;42.630;23.382;2022-07-21T06:22:44;94676.50;;;21.72;100.00
12775;BME280;6451;42.630;23.382;2022-07-21T06:25:11;94675.88;;;21.95;100.00
12775;BME280;6451;42.630;23.382;2022-07-21T06:27:39;94673.94;;;22.29;100.00
12775;BME280;6451;42.630;23.382;2022-07-21T06:30:07;94673.66;;;22.20;100.00
12775;BME280;6451;42.630;23.382;2022-07-21T06:32:34;94663.25;;;21.93;100.00
12775;BME280;6451;42.630;23.382;2022-07-21T06:35:01;94669.97;;;22.30;100.00
12775;BME280;6451;42.630;23.382;2022-07-21T06:37:28;94661.47;;;22.14;100.00
12775;BME280;6451;42.630;23.382;2022-07-21T06:39:55;94670.81;;;22.27;100.00
12775;BME280;6451;42.630;23.382;2022-07-21T06:42:22;94665.19;;;22.34;100.00
12775;BME280;6451;42.630;23.382;2022-07-21T06:44:50;94664.84;;;22.63;100.00
12775;BME280;6451;42.630;23.382;2022-07-21T06:47:17;94657.41;;;22.87;100.00
12775;BME280;6451;42.630;23.382;2022-07-21T06:49:44;94661.31;;;22.89;100.00
12775;BME280;6451;42.630;23.382;2022-07-21T06:52:12;94667.50;;;23.00;100.00
12775;BME280;6451;42.630;23.382;2022-07-21T06:54:39;94660.56;;;23.12;100.00
12775;BME280;6451;42.630;23.382;2022-07-21T06:57:06;94659.94;;;23.28;100.00
12775;BME280;6451;42.630;23.382;2022-07-21T06:59:33;94655.97;;;23.29;99.54
12775;BME280;6451;42.630;23.382;2022-07-21T07:02:01;94651.59;;;23.55;98.46
12775;BME280;6451;42.630;23.382;2022-07-21T07:04:29;94647.09;;;23.65;99.18
12775;BME280;6451;42.630;23.382;2022-07-21T07:06:55;94664.56;;;23.85;98.02
12775;BME280;6451;42.630;23.382;2022-07-21T07:09:22;94647.22;;;24.01;97.87
12775;BME280;6451;42.630;23.382;2022-07-21T07:11:50;94659.97;;;24.18;95.35
12775;BME280;6451;42.630;23.382;2022-07-21T07:14:17;94655.28;;;24.35;94.06
12775;BME280;6451;42.630;23.382;2022-07-21T07:16:46;94651.72;;;24.34;95.82
12775;BME280;6451;42.630;23.382;2022-07-21T07:19:15;94649.84;;;24.67;91.67
12775;BME280;6451;42.630;23.382;2022-07-21T07:21:42;94652.91;;;24.53;93.95
12775;BME280;6451;42.630;23.382;2022-07-21T07:24:09;94650.47;;;24.75;88.38
12775;BME280;6451;42.630;23.382;2022-07-21T07:26:36;94625.50;;;24.91;92.09
12775;BME280;6451;42.630;23.382;2022-07-21T07:29:03;94640.88;;;24.96;92.22
12775;BME280;6451;42.630;23.382;2022-07-21T07:31:29;94628.38;;;25.08;85.34
12775;BME280;6451;42.630;23.382;2022-07-21T07:33:56;94651.97;;;25.32;83.18
12775;BME280;6451;42.630;23.382;2022-07-21T07:36:25;94654.59;;;25.23;81.32
12775;BME280;6451;42.630;23.382;2022-07-21T07:38:53;94640.31;;;25.37;80.87
12775;BME280;6451;42.630;23.382;2022-07-21T07:41:21;94642.50;;;25.62;80.23
12775;BME280;6451;42.630;23.382;2022-07-21T07:43:48;94633.63;;;25.67;82.02
12775;BME280;6451;42.630;23.382;2022-07-21T07:46:16;94639.28;;;25.80;79.44
12775;BME280;6451;42.630;23.382;2022-07-21T07:48:44;94622.75;;;25.89;77.21
12775;BME280;6451;42.630;23.382;2022-07-21T07:51:12;94632.06;;;26.12;76.71
12775;BME280;6451;42.630;23.382;2022-07-21T07:53:40;94621.28;;;26.14;76.64
12775;BME280;6451;42.630;23.382;2022-07-21T07:56:07;94624.22;;;26.23;75.42
12775;BME280;6451;42.630;23.382;2022-07-21T07:58:34;94616.00;;;26.32;76.56
12775;BME280;6451;42.630;23.382;2022-07-21T08:01:02;94620.88;;;26.28;74.88
12775;BME280;6451;42.630;23.382;2022-07-21T08:03:29;94623.53;;;26.19;73.94
12775;BME280;6451;42.630;23.382;2022-07-21T08:05:56;94576.00;;;26.13;75.04
12775;BME280;6451;42.630;23.382;2022-07-21T08:08:28;94606.06;;;26.60;74.60
12775;BME280;6451;42.630;23.382;2022-07-21T08:10:56;94600.88;;;26.87;71.20
12775;BME280;6451;42.630;23.382;2022-07-21T08:13:24;94615.56;;;26.88;71.42
12775;BME280;6451;42.630;23.382;2022-07-21T08:15:51;94606.88;;;26.86;72.68
12775;BME280;6451;42.630;23.382;2022-07-21T08:18:18;94602.88;;;26.87;70.82
12775;BME280;6451;42.630;23.382;2022-07-21T08:20:46;94607.31;;;26.97;70.42
12775;BME280;6451;42.630;23.382;2022-07-21T08:23:13;94595.97;;;26.92;69.72
12775;BME280;6451;42.630;23.382;2022-07-21T08:25:41;94597.63;;;27.02;66.54
12775;BME280;6451;42.630;23.382;2022-07-21T08:28:10;94596.75;;;27.18;65.53
12775;BME280;6451;42.630;23.382;2022-07-21T08:30:37;94594.75;;;27.31;65.56
12775;BME280;6451;42.630;23.382;2022-07-21T08:33:04;94593.38;;;27.35;65.70
12775;BME280;6451;42.630;23.382;2022-07-21T08:35:31;94589.94;;;27.31;64.62
12775;BME280;6451;42.630;23.382;2022-07-21T08:38:01;94589.56;;;27.55;64.58
12775;BME280;6451;42.630;23.382;2022-07-21T08:40:30;94600.78;;;27.64;63.89
12775;BME280;6451;42.630;23.382;2022-07-21T08:42:57;94593.66;;;27.63;63.68
12775;BME280;6451;42.630;23.382;2022-07-21T08:45:26;94597.00;;;27.58;63.11
12775;BME280;6451;42.630;23.382;2022-07-21T08:47:56;94599.41;;;27.47;62.80
12775;BME280;6451;42.630;23.382;2022-07-21T08:50:28;94575.50;;;27.58;62.96
12775;BME280;6451;42.630;23.382;2022-07-21T08:52:56;94556.75;;;27.24;61.21
12775;BME280;6451;42.630;23.382;2022-07-21T08:55:29;94586.19;;;27.60;60.97
12775;BME280;6451;42.630;23.382;2022-07-21T08:57:57;94586.59;;;27.84;58.56
12775;BME280;6451;42.630;23.382;2022-07-21T09:00:26;94579.44;;;27.83;58.74
12775;BME280;6451;42.630;23.382;2022-07-21T09:03:12;94571.75;;;28.09;58.18
12775;BME280;6451;42.630;23.382;2022-07-21T09:05:40;94567.28;;;28.11;57.14
12775;BME280;6451;42.630;23.382;2022-07-21T09:08:07;94571.34;;;28.19;56.73
12775;BME280;6451;42.630;23.382;2022-07-21T09:10:34;94566.44;;;28.23;55.80
12775;BME280;6451;42.630;23.382;2022-07-21T09:13:05;94569.69;;;28.00;55.94
12775;BME280;6451;42.630;23.382;2022-07-21T09:15:34;94563.59;;;28.14;56.22
12775;BME280;6451;42.630;23.382;2022-07-21T09:18:07;94545.53;;;28.28;56.27
12775;BME280;6451;42.630;23.382;2022-07-21T09:20:36;94564.94;;;28.53;54.99
12775;BME280;6451;42.630;23.382;2022-07-21T09:23:05;94555.38;;;28.64;54.37
12775;BME280;6451;42.630;23.382;2022-07-21T09:25:38;94573.56;;;28.68;53.76
12775;BME280;6451;42.630;23.382;2022-07-21T09:28:11;94571.63;;;28.56;53.70
12775;BME280;6451;42.630;23.382;2022-07-21T09:30:58;94572.63;;;28.40;52.99
12775;BME280;6451;42.630;23.382;2022-07-21T09:33:28;94560.34;;;28.16;52.74
12775;BME280;6451;42.630;23.382;2022-07-21T09:36:00;94546.28;;;28.29;53.45
12775;BME280;6451;42.630;23.382;2022-07-21T09:38:29;94455.22;;;27.91;53.45
12775;BME280;6451;42.630;23.382;2022-07-21T09:41:04;94555.53;;;28.60;52.73
12775;BME280;6451;42.630;23.382;2022-07-21T09:43:35;94559.09;;;28.92;52.51
12775;BME280;6451;42.630;23.382;2022-07-21T09:46:11;94555.00;;;28.52;48.36
12775;BME280;6451;42.630;23.382;2022-07-21T09:48:41;94556.78;;;28.68;49.42
12775;BME280;6451;42.630;23.382;2022-07-21T09:51:26;94547.84;;;28.83;48.23
12775;BME280;6451;42.630;23.382;2022-07-21T09:53:56;94556.00;;;28.99;48.30
12775;BME280;6451;42.630;23.382;2022-07-21T09:56:25;94547.03;;;29.13;48.66
12775;BME280;6451;42.630;23.382;2022-07-21T09:58:53;94544.66;;;28.93;48.75
12775;BME280;6451;42.630;23.382;2022-07-21T10:01:24;94548.56;;;29.05;48.33
12775;BME280;6451;42.630;23.382;2022-07-21T10:03:52;94546.31;;;29.22;47.83
12775;BME280;6451;42.630;23.382;2022-07-21T10:06:22;94500.06;;;28.90;47.68
12775;BME280;6451;42.630;23.382;2022-07-21T10:08:49;94544.00;;;29.29;45.85
12775;BME280;6451;42.630;23.382;2022-07-21T10:11:16;94560.22;;;29.13;46.01
12775;BME280;6451;42.630;23.382;2022-07-21T10:13:43;94538.84;;;28.78;46.13
12775;BME280;6451;42.630;23.382;2022-07-21T10:16:12;94549.06;;;29.13;45.66
12775;BME280;6451;42.630;23.382;2022-07-21T10:18:49;94523.13;;;29.12;44.37
12775;BME280;6451;42.630;23.382;2022-07-21T10:21:26;94534.97;;;29.25;45.67
12775;BME280;6451;42.630;23.382;2022-07-21T10:23:56;94539.19;;;29.30;46.31
12775;BME280;6451;42.630;23.382;2022-07-21T10:26:24;94538.72;;;29.31;45.17
12775;BME280;6451;42.630;23.382;2022-07-21T10:28:51;94491.47;;;29.15;45.98
12775;BME280;6451;42.630;23.382;2022-07-21T10:31:19;94536.22;;;29.43;45.04
12775;BME280;6451;42.630;23.382;2022-07-21T10:34:00;94528.50;;;29.56;45.36
12775;BME280;6451;42.630;23.382;2022-07-21T10:36:46;94527.28;;;29.75;44.52
12775;BME280;6451;42.630;23.382;2022-07-21T10:39:24;94526.19;;;29.54;44.75
12775;BME280;6451;42.630;23.382;2022-07-21T10:41:54;94527.44;;;29.72;44.32
12775;BME280;6451;42.630;23.382;2022-07-21T10:44:40;94519.94;;;29.59;44.49
12775;BME280;6451;42.630;23.382;2022-07-21T10:47:09;94512.19;;;29.73;44.88
12775;BME280;6451;42.630;23.382;2022-07-21T10:49:49;94512.38;;;29.60;44.47
12775;BME280;6451;42.630;23.382;2022-07-21T10:52:58;94510.34;;;29.79;43.93
12775;BME280;6451;42.630;23.382;2022-07-21T10:55:27;94509.41;;;29.73;43.75
12775;BME280;6451;42.630;23.382;2022-07-21T10:58:12;94500.38;;;29.87;44.70
12775;BME280;6451;42.630;23.382;2022-07-21T11:00:44;94484.81;;;30.04;43.99
12775;BME280;6451;42.630;23.382;2022-07-21T11:03:20;94496.66;;;30.08;43.13
12775;BME280;6451;42.630;23.382;2022-07-21T11:06:20;94488.88;;;29.94;42.72
12775;BME280;6451;42.630;23.382;2022-07-21T11:08:50;94483.28;;;29.94;43.25
12775;BME280;6451;42.630;23.382;2022-07-21T11:11:19;94477.03;;;30.17;42.79
12775;BME280;6451;42.630;23.382;2022-07-21T11:14:01;94476.75;;;30.15;42.58
12775;BME280;6451;42.630;23.382;2022-07-21T11:19:42;94472.22;;;30.00;42.17
12775;BME280;6451;42.630;23.382;2022-07-21T11:22:14;94470.38;;;29.87;42.38
12775;BME280;6451;42.630;23.382;2022-07-21T11:24:43;94475.63;;;30.04;42.23
12775;BME280;6451;42.630;23.382;2022-07-21T11:27:11;94477.34;;;30.10;42.94
12775;BME280;6451;42.630;23.382;2022-07-21T11:29:40;94475.63;;;30.22;42.03
12775;BME280;6451;42.630;23.382;2022-07-21T11:32:14;94472.81;;;30.31;42.07
12775;BME280;6451;42.630;23.382;2022-07-21T11:34:44;94473.00;;;30.09;41.15
12775;BME280;6451;42.630;23.382;2022-07-21T11:37:15;94454.66;;;30.08;41.21
12775;BME280;6451;42.630;23.382;2022-07-21T11:39:42;94459.94;;;30.15;41.76
12775;BME280;6451;42.630;23.382;2022-07-21T11:42:10;94455.75;;;30.02;41.05
12775;BME280;6451;42.630;23.382;2022-07-21T11:44:39;94456.16;;;30.28;40.57
12775;BME280;6451;42.630;23.382;2022-07-21T11:47:09;94467.44;;;30.52;41.41
12775;BME280;6451;42.630;23.382;2022-07-21T11:49:36;94455.16;;;30.49;41.13
12775;BME280;6451;42.630;23.382;2022-07-21T11:52:05;94449.69;;;30.55;39.95
12775;BME280;6451;42.630;23.382;2022-07-21T11:54:36;94444.63;;;30.35;39.85
12775;BME280;6451;42.630;23.382;2022-07-21T11:57:05;94459.56;;;30.74;40.20
12775;BME280;6451;42.630;23.382;2022-07-21T11:59:33;94440.16;;;30.61;40.39
12775;BME280;6451;42.630;23.382;2022-07-21T12:02:03;94444.53;;;30.95;40.41
12775;BME280;6451;42.630;23.382;2022-07-21T12:04:34;94449.13;;;30.84;40.53
12775;BME280;6451;42.630;23.382;2022-07-21T12:07:03;94443.44;;;30.93;40.77
12775;BME280;6451;42.630;23.382;2022-07-21T12:09:31;94439.63;;;31.05;40.06
12775;BME280;6451;42.630;23.382;2022-07-21T12:12:00;94441.88;;;31.25;40.58
12775;BME280;6451;42.630;23.382;2022-07-21T12:14:48;94433.78;;;31.18;39.98
12775;BME280;6451;42.630;23.382;2022-07-21T12:17:16;94427.59;;;31.14;39.68
12775;BME280;6451;42.630;23.382;2022-07-21T12:19:45;94444.72;;;30.92;39.95
12775;BME280;6451;42.630;23.382;2022-07-21T12:22:12;94448.63;;;30.85;39.18
12775;BME280;6451;42.630;23.382;2022-07-21T12:24:53;94441.72;;;30.95;39.63
12775;BME280;6451;42.630;23.382;2022-07-21T12:27:22;94431.69;;;31.04;39.67
12775;BME280;6451;42.630;23.382;2022-07-21T12:29:49;94437.03;;;31.25;39.13
12775;BME280;6451;42.630;23.382;2022-07-21T12:32:42;94431.19;;;31.14;38.86
12775;BME280;6451;42.630;23.382;2022-07-21T12:35:25;94418.50;;;31.43;38.99
12775;BME280;6451;42.630;23.382;2022-07-21T12:38:00;94426.41;;;31.30;39.61
12775;BME280;6451;42.630;23.382;2022-07-21T12:40:29;94422.06;;;31.29;39.74
12775;BME280;6451;42.630;23.382;2022-07-21T12:43:06;94425.28;;;31.51;39.06
12775;BME280;6451;42.630;23.382;2022-07-21T12:45:45;94418.94;;;31.65;39.29
12775;BME280;6451;42.630;23.382;2022-07-21T12:48:13;94382.25;;;31.54;39.17
12775;BME280;6451;42.630;23.382;2022-07-21T12:50:41;94424.13;;;31.43;39.49
12775;BME280;6451;42.630;23.382;2022-07-21T12:53:10;94417.47;;;31.55;39.39
12775;BME280;6451;42.630;23.382;2022-07-21T12:55:37;94419.66;;;31.75;39.54
12775;BME280;6451;42.630;23.382;2022-07-21T12:58:06;94415.53;;;31.46;39.14
12775;BME280;6451;42.630;23.382;2022-07-21T13:00:33;94423.06;;;31.40;39.52
12775;BME280;6451;42.630;23.382;2022-07-21T13:03:00;94406.13;;;31.49;39.53
12775;BME280;6451;42.630;23.382;2022-07-21T13:05:27;94413.09;;;31.78;39.44
12775;BME280;6451;42.630;23.382;2022-07-21T13:07:54;94409.31;;;31.96;39.20